createdAt,value
2022-10-10T00:01:03.460Z,8.70
2022-10-10T00:03:50.850Z,8.70
2022-10-10T00:06:38.035Z,8.70
2022-10-10T00:09:25.407Z,8.60
2022-10-10T00:12:12.842Z,8.50
2022-10-10T00:15:00.203Z,8.50
2022-10-10T00:17:48.163Z,8.40
2022-10-10T00:20:35.408Z,8.40
2022-10-10T00:23:23.104Z,8.40
2022-10-10T00:26:13.756Z,8.30
2022-10-10T00:28:59.613Z,8.40
2022-10-10T00:31:46.800Z,8.30
2022-10-10T00:34:35.141Z,8.40
2022-10-10T00:37:22.191Z,8.40
2022-10-10T00:40:10.265Z,8.30
2022-10-10T00:42:57.843Z,8.30
2022-10-10T00:45:47.870Z,8.30
2022-10-10T00:48:41.740Z,8.30
2022-10-10T00:51:29.137Z,8.30
2022-10-10T00:54:19.102Z,8.30
2022-10-10T00:57:09.318Z,8.20
2022-10-10T00:59:57.195Z,8.20
2022-10-10T01:02:44.421Z,8.20
2022-10-10T01:05:32.950Z,8.10
2022-10-10T01:08:21.736Z,8.10
2022-10-10T01:11:14.957Z,8.00
2022-10-10T01:14:13.678Z,8.00
2022-10-10T01:17:09.591Z,8.00
2022-10-10T01:20:22.552Z,8.00
2022-10-10T01:23:15.658Z,8.10
2022-10-10T01:26:39.384Z,8.10
2022-10-10T01:29:39.143Z,8.00
2022-10-10T01:32:41.262Z,7.90
2022-10-10T01:35:47.001Z,7.90
2022-10-10T01:38:43.973Z,7.90
2022-10-10T01:41:37.473Z,7.80
2022-10-10T01:44:24.679Z,7.80
2022-10-10T01:47:13.230Z,7.80
2022-10-10T01:50:03.569Z,7.90
2022-10-10T01:53:11.629Z,7.80
2022-10-10T01:56:01.917Z,7.80
2022-10-10T01:59:21.107Z,7.90
2022-10-10T02:02:28.294Z,7.80
2022-10-10T02:05:24.226Z,7.80
2022-10-10T02:08:26.289Z,7.70
2022-10-10T02:11:13.570Z,7.70
2022-10-10T02:14:12.831Z,7.70
2022-10-10T02:17:02.791Z,7.70
2022-10-10T02:19:53.716Z,7.60
2022-10-10T02:22:43.308Z,7.60
2022-10-10T02:25:33.904Z,7.60
2022-10-10T02:28:24.278Z,7.60
2022-10-10T02:31:14.346Z,7.50
2022-10-10T02:34:07.783Z,7.50
2022-10-10T02:36:58.122Z,7.50
2022-10-10T02:39:49.260Z,7.50
2022-10-10T02:42:38.495Z,7.50
2022-10-10T02:45:28.553Z,7.50
2022-10-10T02:48:16.090Z,7.60
2022-10-10T02:51:03.599Z,7.70
2022-10-10T02:53:51.232Z,7.70
2022-10-10T02:56:38.499Z,7.60
2022-10-10T02:59:27.321Z,7.60
2022-10-10T03:02:14.463Z,7.60
2022-10-10T03:05:01.726Z,7.60
2022-10-10T03:07:48.899Z,7.60
2022-10-10T03:10:36.280Z,7.70
2022-10-10T03:13:24.005Z,7.80
2022-10-10T03:16:11.394Z,7.70
2022-10-10T03:19:00.038Z,7.60
2022-10-10T03:21:47.067Z,7.60
2022-10-10T03:24:34.165Z,7.70
2022-10-10T03:27:21.410Z,7.70
2022-10-10T03:30:08.927Z,7.70
2022-10-10T03:32:56.144Z,7.80
2022-10-10T03:35:43.374Z,7.80
2022-10-10T03:38:30.695Z,7.70
2022-10-10T03:41:18.199Z,7.60
2022-10-10T03:44:05.744Z,7.60
2022-10-10T03:46:52.951Z,7.60
2022-10-10T03:49:40.472Z,7.60
2022-10-10T03:52:28.684Z,7.50
2022-10-10T03:55:15.799Z,7.50
2022-10-10T03:58:03.500Z,7.50
2022-10-10T04:00:59.127Z,7.50
2022-10-10T04:03:51.240Z,7.40
2022-10-10T04:06:35.354Z,7.40
2022-10-10T04:09:23.476Z,7.40
2022-10-10T04:12:10.780Z,7.30
2022-10-10T04:14:58.400Z,7.30
2022-10-10T04:17:45.531Z,7.40
2022-10-10T04:20:33.363Z,7.40
2022-10-10T04:23:20.758Z,7.40
2022-10-10T04:26:09.108Z,7.30
2022-10-10T04:28:56.577Z,7.30
2022-10-10T04:31:43.828Z,7.30
2022-10-10T04:34:31.941Z,7.30
2022-10-10T04:37:19.148Z,7.30
2022-10-10T04:40:07.564Z,7.30
2022-10-10T04:42:55.586Z,7.40
2022-10-10T04:45:43.065Z,7.40
2022-10-10T04:48:30.530Z,7.30
2022-10-10T04:51:18.311Z,7.40
2022-10-10T04:54:05.789Z,7.40
2022-10-10T04:56:53.512Z,7.30
2022-10-10T04:59:40.715Z,7.20
2022-10-10T05:02:28.252Z,7.30
2022-10-10T05:05:15.873Z,7.20
2022-10-10T05:08:03.410Z,7.20
2022-10-10T05:10:53.947Z,7.20
2022-10-10T05:13:41.368Z,7.20
2022-10-10T05:16:28.667Z,7.30
2022-10-10T05:19:16.297Z,7.30
2022-10-10T05:22:03.577Z,7.30
2022-10-10T05:24:50.773Z,7.20
2022-10-10T05:27:38.472Z,7.10
2022-10-10T05:30:25.711Z,7.10
2022-10-10T05:33:12.998Z,7.10
2022-10-10T05:36:06.861Z,7.10
2022-10-10T05:38:53.876Z,7.10
2022-10-10T05:41:41.257Z,7.10
2022-10-10T05:44:28.571Z,7.10
2022-10-10T05:47:15.969Z,7.10
2022-10-10T05:50:03.436Z,7.10
2022-10-10T05:52:51.136Z,7.10
2022-10-10T05:55:38.726Z,7.10
2022-10-10T05:58:27.430Z,7.20
2022-10-10T06:01:15.128Z,7.30
2022-10-10T06:04:02.337Z,7.30
2022-10-10T06:06:50.081Z,7.30
2022-10-10T06:09:37.654Z,7.30
2022-10-10T06:12:25.375Z,7.30
2022-10-10T06:15:13.064Z,7.40
2022-10-10T06:18:00.581Z,7.40
2022-10-10T06:20:48.125Z,7.50
2022-10-10T06:23:36.422Z,7.60
2022-10-10T06:26:23.987Z,7.70
2022-10-10T06:29:11.491Z,7.60
2022-10-10T06:31:58.710Z,7.70
2022-10-10T06:34:46.929Z,7.80
2022-10-10T06:37:34.170Z,7.90
2022-10-10T06:40:21.107Z,8.00
2022-10-10T06:43:11.099Z,8.10
2022-10-10T06:45:58.287Z,8.20
2022-10-10T06:48:47.171Z,8.30
2022-10-10T06:51:34.736Z,8.50
2022-10-10T06:54:22.159Z,8.60
2022-10-10T06:57:09.665Z,8.80
2022-10-10T06:59:57.123Z,9.00
2022-10-10T07:02:44.874Z,9.20
2022-10-10T07:05:32.535Z,9.20
2022-10-10T07:08:20.698Z,9.40
2022-10-10T07:11:10.237Z,9.50
2022-10-10T07:13:57.497Z,9.70
2022-10-10T07:16:45.109Z,9.80
2022-10-10T07:19:32.561Z,10.00
2022-10-10T07:22:20.137Z,10.20
2022-10-10T07:25:08.117Z,10.40
2022-10-10T07:27:56.881Z,10.60
2022-10-10T07:30:46.325Z,10.70
2022-10-10T07:33:36.875Z,10.90
2022-10-10T07:36:24.129Z,11.20
2022-10-10T07:39:15.068Z,11.40
2022-10-10T07:42:00.389Z,11.70
2022-10-10T07:44:47.790Z,11.90
2022-10-10T07:47:34.932Z,12.00
2022-10-10T07:50:23.976Z,12.20
2022-10-10T07:53:12.174Z,12.30
2022-10-10T07:55:59.376Z,12.50
2022-10-10T07:58:46.676Z,12.70
2022-10-10T08:01:34.135Z,12.70
2022-10-10T08:04:21.743Z,12.80
2022-10-10T08:07:09.192Z,12.90
2022-10-10T08:09:56.717Z,13.00
2022-10-10T08:12:45.010Z,13.10
2022-10-10T08:15:34.042Z,13.10
2022-10-10T08:18:22.598Z,13.10
2022-10-10T08:21:12.857Z,13.10
2022-10-10T08:24:00.377Z,13.00
2022-10-10T08:26:47.664Z,13.10
2022-10-10T08:29:34.988Z,13.10
2022-10-10T08:32:22.208Z,13.20
2022-10-10T08:35:10.021Z,13.30
2022-10-10T08:37:58.466Z,13.50
2022-10-10T08:40:51.904Z,13.60
2022-10-10T08:43:42.237Z,13.70
2022-10-10T08:46:50.455Z,13.80
2022-10-10T08:49:43.516Z,14.00
2022-10-10T08:52:45.559Z,14.20
2022-10-10T08:55:36.319Z,14.40
2022-10-10T08:58:37.014Z,14.60
2022-10-10T09:01:28.934Z,14.90
2022-10-10T09:04:18.427Z,15.10
2022-10-10T09:07:28.409Z,15.30
2022-10-10T09:10:21.689Z,15.50
2022-10-10T09:13:21.509Z,15.90
2022-10-10T09:16:23.998Z,16.30
2022-10-10T09:19:31.168Z,16.50
2022-10-10T09:22:21.548Z,16.20
2022-10-10T09:25:21.333Z,16.10
2022-10-10T09:28:33.209Z,16.20
2022-10-10T09:31:41.304Z,16.40
2022-10-10T09:34:48.482Z,16.70
2022-10-10T09:37:48.002Z,16.90
2022-10-10T09:40:34.161Z,17.00
2022-10-10T09:43:22.401Z,16.90
2022-10-10T09:46:09.887Z,16.90
2022-10-10T09:48:58.874Z,16.80
2022-10-10T09:51:47.793Z,16.70
2022-10-10T09:54:34.783Z,16.70
2022-10-10T09:57:25.113Z,17.00
2022-10-10T10:00:36.821Z,17.10
2022-10-10T10:03:24.853Z,17.40
2022-10-10T10:06:15.166Z,17.40
2022-10-10T10:09:04.575Z,17.40
2022-10-10T10:11:57.606Z,17.60
2022-10-10T10:14:46.765Z,17.70
2022-10-10T10:17:34.439Z,17.60
2022-10-10T10:20:36.905Z,17.50
2022-10-10T10:23:27.589Z,17.70
2022-10-10T10:26:21.013Z,17.80
2022-10-10T10:29:11.228Z,18.10
2022-10-10T10:32:10.546Z,18.20
2022-10-10T10:35:25.568Z,18.30
2022-10-10T10:38:27.777Z,18.40
2022-10-10T10:41:34.625Z,18.60
2022-10-10T10:44:30.968Z,19.00
2022-10-10T10:47:39.261Z,19.30
2022-10-10T10:50:35.248Z,19.30
2022-10-10T10:53:37.207Z,19.50
2022-10-10T10:56:36.841Z,19.40
2022-10-10T11:00:20.315Z,19.50
2022-10-10T11:02:31.498Z,19.40
2022-10-10T11:05:40.906Z,19.30
2022-10-10T11:08:36.028Z,19.50
2022-10-10T11:11:37.785Z,19.60
2022-10-10T11:14:40.025Z,19.70
2022-10-10T11:17:39.529Z,19.30
2022-10-10T11:20:32.869Z,19.40
2022-10-10T11:23:23.235Z,19.70
2022-10-10T11:26:31.475Z,20.20
2022-10-10T11:29:24.824Z,20.70
2022-10-10T11:32:15.203Z,20.70
2022-10-10T11:35:17.360Z,20.70
2022-10-10T11:38:23.242Z,20.90
2022-10-10T11:41:35.007Z,20.80
2022-10-10T11:44:46.385Z,21.00
2022-10-10T11:47:43.209Z,20.90
2022-10-10T11:50:33.866Z,20.70
2022-10-10T11:53:36.936Z,20.90
2022-10-10T11:56:30.675Z,20.90
2022-10-10T11:59:30.359Z,20.70
2022-10-10T12:02:29.749Z,20.70
2022-10-10T12:05:26.023Z,20.50
2022-10-10T12:08:19.629Z,20.60
2022-10-10T12:11:25.060Z,20.60
2022-10-10T12:14:15.620Z,20.60
2022-10-10T12:17:02.840Z,20.80
2022-10-10T12:19:51.799Z,21.20
2022-10-10T12:22:39.449Z,21.50
2022-10-10T12:25:42.293Z,21.40
2022-10-10T12:28:39.250Z,21.00
2022-10-10T12:31:32.062Z,21.00
2022-10-10T12:34:38.545Z,20.70
2022-10-10T12:37:31.623Z,21.00
2022-10-10T12:40:21.574Z,21.00
2022-10-10T12:43:42.382Z,21.00
2022-10-10T12:46:32.763Z,21.30
2022-10-10T12:49:23.091Z,21.50
2022-10-10T12:52:16.222Z,21.50
2022-10-10T12:55:18.858Z,21.70
2022-10-10T12:58:20.855Z,21.50
2022-10-10T13:01:04.676Z,21.60
2022-10-10T13:03:55.216Z,21.30
2022-10-10T13:06:45.286Z,21.60
2022-10-10T13:09:36.016Z,21.60
2022-10-10T13:12:29.610Z,21.40
2022-10-10T13:15:22.048Z,21.50
2022-10-10T13:18:09.190Z,21.60
2022-10-10T13:20:57.319Z,21.80
2022-10-10T13:26:41.700Z,21.50
2022-10-10T13:29:31.885Z,21.40
2022-10-10T13:32:24.900Z,21.50
2022-10-10T13:35:23.703Z,21.50
2022-10-10T13:38:13.483Z,21.50
2022-10-10T13:41:02.995Z,21.20
2022-10-10T13:43:50.834Z,21.10
2022-10-10T13:46:37.993Z,21.10
2022-10-10T13:49:30.337Z,21.40
2022-10-10T13:52:23.486Z,21.50
2022-10-10T13:55:28.048Z,21.50
2022-10-10T13:58:16.039Z,21.70
2022-10-10T14:01:05.126Z,21.80
2022-10-10T14:03:54.806Z,22.00
2022-10-10T14:06:45.900Z,22.00
2022-10-10T14:09:36.951Z,21.70
2022-10-10T14:12:30.171Z,21.50
2022-10-10T14:15:39.056Z,21.50
2022-10-10T14:18:27.042Z,21.60
2022-10-10T14:21:15.229Z,21.60
2022-10-10T14:24:02.357Z,21.60
2022-10-10T14:26:50.377Z,21.70
2022-10-10T14:29:38.990Z,21.50
2022-10-10T14:32:27.004Z,21.30
2022-10-10T14:35:14.160Z,21.20
2022-10-10T14:38:01.396Z,21.20
2022-10-10T14:40:50.302Z,21.30
2022-10-10T14:43:38.739Z,21.40
2022-10-10T14:46:26.079Z,21.50
2022-10-10T14:49:21.320Z,21.60
2022-10-10T14:52:08.750Z,21.60
2022-10-10T14:54:55.971Z,21.60
2022-10-10T14:57:43.466Z,21.50
2022-10-10T15:00:31.025Z,21.50
2022-10-10T15:03:18.282Z,21.30
2022-10-10T15:06:06.956Z,21.30
2022-10-10T15:08:54.567Z,21.00
2022-10-10T15:11:41.798Z,21.00
2022-10-10T15:14:29.310Z,20.90
2022-10-10T15:17:16.737Z,20.80
2022-10-10T15:20:06.976Z,20.90
2022-10-10T15:22:55.015Z,20.90
2022-10-10T15:25:45.549Z,20.90
2022-10-10T15:28:33.574Z,21.00
2022-10-10T15:31:22.390Z,20.90
2022-10-10T15:34:09.742Z,20.80
2022-10-10T15:36:57.151Z,20.80
2022-10-10T15:39:44.889Z,20.90
2022-10-10T15:42:32.322Z,21.00
2022-10-10T15:45:43.705Z,21.10
2022-10-10T15:48:08.979Z,21.10
2022-10-10T15:50:56.483Z,21.20
2022-10-10T15:53:44.034Z,21.10
2022-10-10T15:56:31.417Z,21.00
2022-10-10T16:02:07.891Z,20.80
2022-10-10T16:04:55.291Z,20.80
2022-10-10T16:07:47.914Z,20.70
2022-10-10T16:10:31.781Z,20.70
2022-10-10T16:13:18.988Z,20.70
2022-10-10T16:16:08.738Z,20.50
2022-10-10T16:18:56.293Z,20.40
2022-10-10T16:21:43.782Z,20.30
2022-10-10T16:24:31.187Z,20.30
2022-10-10T16:27:18.463Z,20.00
2022-10-10T16:30:07.055Z,19.90
2022-10-10T16:32:55.585Z,19.90
2022-10-10T16:35:42.798Z,19.80
2022-10-10T16:38:30.393Z,19.70
2022-10-10T16:41:42.476Z,19.70
2022-10-10T16:44:08.550Z,19.60
2022-10-10T16:46:55.730Z,19.50
2022-10-10T16:49:43.241Z,19.40
2022-10-10T16:52:32.567Z,19.10
2022-10-10T16:55:20.088Z,18.90
2022-10-10T16:58:09.228Z,18.70
2022-10-10T17:00:56.936Z,18.70
2022-10-10T17:03:44.220Z,18.60
2022-10-10T17:06:35.291Z,18.50
2022-10-10T17:09:22.779Z,18.20
2022-10-10T17:12:10.050Z,17.90
2022-10-10T17:14:57.520Z,17.80
2022-10-10T17:17:44.702Z,17.80
2022-10-10T17:20:32.436Z,17.90
2022-10-10T17:23:20.387Z,17.70
2022-10-10T17:26:10.388Z,17.60
2022-10-10T17:28:59.718Z,17.50
2022-10-10T17:31:46.872Z,17.60
2022-10-10T17:34:34.797Z,17.50
2022-10-10T17:37:22.335Z,17.40
2022-10-10T17:40:10.299Z,17.40
2022-10-10T17:43:00.405Z,17.20
2022-10-10T17:45:46.460Z,17.10
2022-10-10T17:48:34.311Z,17.00
2022-10-10T17:51:22.841Z,17.00
2022-10-10T17:54:11.073Z,17.10
2022-10-10T17:56:58.538Z,17.20
2022-10-10T17:59:46.339Z,17.40
2022-10-10T18:02:33.755Z,17.40
2022-10-10T18:05:21.734Z,17.50
2022-10-10T18:08:08.996Z,17.40
2022-10-10T18:10:56.479Z,17.40
2022-10-10T18:13:44.130Z,17.50
2022-10-10T18:16:34.481Z,17.50
2022-10-10T18:19:21.710Z,17.40
2022-10-10T18:22:09.287Z,17.30
2022-10-10T18:24:56.893Z,17.40
2022-10-10T18:27:44.125Z,17.40
2022-10-10T18:30:31.564Z,17.40
2022-10-10T18:33:19.351Z,17.50
2022-10-10T18:36:08.551Z,17.40
2022-10-10T18:39:01.715Z,17.30
2022-10-10T18:41:49.020Z,17.20
2022-10-10T18:44:36.609Z,17.10
2022-10-10T18:47:24.014Z,17.00
2022-10-10T18:50:11.288Z,17.00
2022-10-10T18:52:58.816Z,17.00
2022-10-10T18:55:47.516Z,17.10
2022-10-10T18:58:36.492Z,17.00
2022-10-10T19:01:25.578Z,17.00
2022-10-10T19:04:15.524Z,16.90
2022-10-10T19:07:03.156Z,17.00
2022-10-10T19:09:50.527Z,17.00
2022-10-10T19:12:38.379Z,17.10
2022-10-10T19:15:25.535Z,17.00
2022-10-10T19:18:13.048Z,17.00
2022-10-10T19:21:02.725Z,17.00
2022-10-10T19:23:50.541Z,17.00
2022-10-10T19:26:37.799Z,16.90
2022-10-10T19:29:26.908Z,17.00
2022-10-10T19:32:14.929Z,17.10
2022-10-10T19:35:02.082Z,17.20
2022-10-10T19:37:49.275Z,17.30
2022-10-10T19:40:39.082Z,17.30
2022-10-10T19:43:26.855Z,17.30
2022-10-10T19:46:16.461Z,17.30
2022-10-10T19:49:03.926Z,17.20
2022-10-10T19:51:52.577Z,17.20
2022-10-10T19:54:40.184Z,17.20
2022-10-10T19:57:27.418Z,17.20
2022-10-10T20:00:15.542Z,17.20
2022-10-10T20:03:03.089Z,17.30
2022-10-10T20:05:50.384Z,17.30
2022-10-10T20:08:40.940Z,17.30
2022-10-10T20:11:28.497Z,17.20
2022-10-10T20:14:16.047Z,17.10
2022-10-10T20:17:03.645Z,17.10
2022-10-10T20:19:51.218Z,17.10
2022-10-10T20:22:39.152Z,17.20
2022-10-10T20:25:26.526Z,17.30
2022-10-10T20:28:15.617Z,17.30
2022-10-10T20:31:02.925Z,17.40
2022-10-10T20:33:52.323Z,17.40
2022-10-10T20:36:39.809Z,17.30
2022-10-10T20:39:27.271Z,17.30
2022-10-10T20:42:14.668Z,17.40
2022-10-10T20:45:02.284Z,17.40
2022-10-10T20:47:50.076Z,17.50
2022-10-10T20:50:39.086Z,17.50
2022-10-10T20:53:26.511Z,17.50
2022-10-10T20:56:14.631Z,17.50
2022-10-10T20:59:02.327Z,17.50
2022-10-10T21:01:49.491Z,17.50
2022-10-10T21:04:36.909Z,17.30
2022-10-10T21:07:24.098Z,17.30
2022-10-10T21:10:11.368Z,17.20
2022-10-10T21:12:58.691Z,17.20
2022-10-10T21:15:46.050Z,17.00
2022-10-10T21:18:33.549Z,16.90
2022-10-10T21:21:21.095Z,16.90
2022-10-10T21:24:14.283Z,17.00
2022-10-10T21:27:01.474Z,17.10
2022-10-10T21:29:48.953Z,17.20
2022-10-10T21:32:36.504Z,17.20
2022-10-10T21:35:23.755Z,17.20
2022-10-10T21:38:11.450Z,17.20
2022-10-10T21:41:00.672Z,17.10
2022-10-10T21:43:51.293Z,17.20
2022-10-10T21:46:38.804Z,17.10
2022-10-10T21:49:26.117Z,17.00
2022-10-10T21:52:14.663Z,17.00
2022-10-10T21:55:01.897Z,17.00
2022-10-10T21:57:49.497Z,17.10
2022-10-10T22:00:37.850Z,17.10
2022-10-10T22:03:25.347Z,17.20
2022-10-10T22:06:15.550Z,17.20
2022-10-10T22:09:03.614Z,17.20
2022-10-10T22:11:50.792Z,17.20
2022-10-10T22:14:38.218Z,17.20
2022-10-10T22:17:25.787Z,17.10
2022-10-10T22:20:14.546Z,17.10
2022-10-10T22:23:01.705Z,17.00
2022-10-10T22:25:51.194Z,17.00
2022-10-10T22:28:39.530Z,17.00
2022-10-10T22:31:27.490Z,17.10
2022-10-10T22:34:14.780Z,17.00
2022-10-10T22:37:02.398Z,17.00
2022-10-10T22:39:49.594Z,17.00
2022-10-10T22:42:37.096Z,16.90
2022-10-10T22:45:24.590Z,16.80
2022-10-10T22:48:12.096Z,16.80
2022-10-10T22:51:01.156Z,16.80
2022-10-10T22:53:49.800Z,16.80
2022-10-10T22:56:37.119Z,16.80
2022-10-10T22:59:24.501Z,16.80
2022-10-10T23:02:11.651Z,16.80
2022-10-10T23:04:59.448Z,16.80
2022-10-10T23:07:47.142Z,16.70
2022-10-10T23:10:34.320Z,16.70
2022-10-10T23:13:21.776Z,16.60
2022-10-10T23:16:10.976Z,16.70
2022-10-10T23:18:58.436Z,16.70
2022-10-10T23:21:45.596Z,16.50
2022-10-10T23:24:32.555Z,16.50
2022-10-10T23:27:19.873Z,16.50
2022-10-10T23:30:08.011Z,16.50
2022-10-10T23:32:55.207Z,16.40
2022-10-10T23:35:42.779Z,16.40
2022-10-10T23:38:31.205Z,16.40
2022-10-10T23:41:18.436Z,16.40
2022-10-10T23:44:05.999Z,16.30
2022-10-10T23:46:53.360Z,16.40
2022-10-10T23:49:41.044Z,16.40
2022-10-10T23:52:28.147Z,16.40
2022-10-10T23:55:15.326Z,16.50
2022-10-10T23:58:03.294Z,16.40
